createdAt,value
2022-08-21T00:00:53.476Z,12.31
2022-08-21T00:01:53.515Z,12.33
2022-08-21T00:02:53.437Z,12.33
2022-08-21T00:03:53.410Z,12.33
2022-08-21T00:04:57.703Z,12.33
2022-08-21T00:05:53.391Z,12.26
2022-08-21T00:06:53.419Z,12.24
2022-08-21T00:07:53.370Z,12.24
2022-08-21T00:08:53.361Z,12.24
2022-08-21T00:09:53.350Z,12.26
2022-08-21T00:10:53.342Z,12.16
2022-08-21T00:11:53.330Z,12.11
2022-08-21T00:12:53.355Z,12.11
2022-08-21T00:13:53.310Z,12.11
2022-08-21T00:14:57.010Z,12.09
2022-08-21T00:15:54.283Z,12.09
2022-08-21T00:16:53.274Z,12.08
2022-08-21T00:17:53.264Z,12.06
2022-08-21T00:18:53.293Z,12.08
2022-08-21T00:19:53.247Z,12.09
2022-08-21T00:20:53.236Z,12.09
2022-08-21T00:21:53.225Z,12.12
2022-08-21T00:22:53.214Z,12.13
2022-08-21T00:23:53.195Z,12.16
2022-08-21T00:24:53.216Z,12.19
2022-08-21T00:25:53.176Z,12.08
2022-08-21T00:26:53.173Z,11.97
2022-08-21T00:27:53.153Z,11.96
2022-08-21T00:28:53.146Z,11.93
2022-08-21T00:29:53.135Z,11.96
2022-08-21T00:30:53.167Z,11.94
2022-08-21T00:31:53.117Z,11.97
2022-08-21T00:32:53.109Z,11.99
2022-08-21T00:33:53.099Z,12.05
2022-08-21T00:34:54.090Z,12.05
2022-08-21T00:35:53.076Z,12.05
2022-08-21T00:36:53.259Z,12.08
2022-08-21T00:37:53.049Z,12.08
2022-08-21T00:38:53.049Z,12.08
2022-08-21T00:39:53.111Z,12.09
2022-08-21T00:40:53.028Z,12.09
2022-08-21T00:41:53.016Z,12.12
2022-08-21T00:42:59.306Z,12.11
2022-08-21T00:43:53.992Z,12.12
2022-08-21T00:44:52.992Z,12.13
2022-08-21T00:45:52.979Z,12.15
2022-08-21T00:46:52.963Z,12.19
2022-08-21T00:47:52.955Z,12.15
2022-08-21T00:48:53.012Z,12.13
2022-08-21T00:49:52.933Z,12.12
2022-08-21T00:50:52.925Z,12.12
2022-08-21T00:51:52.917Z,12.11
2022-08-21T00:52:52.909Z,12.09
2022-08-21T00:53:53.641Z,12.08
2022-08-21T00:54:52.916Z,12.08
2022-08-21T00:55:52.866Z,12.09
2022-08-21T00:56:52.865Z,12.11
2022-08-21T00:57:52.853Z,12.12
2022-08-21T00:58:54.977Z,12.15
2022-08-21T00:59:52.833Z,12.16
2022-08-21T01:00:52.956Z,12.15
2022-08-21T01:01:52.814Z,12.15
2022-08-21T01:02:52.807Z,12.13
2022-08-21T01:03:52.915Z,12.16
2022-08-21T01:04:52.784Z,12.19
2022-08-21T01:05:52.769Z,12.19
2022-08-21T01:06:52.797Z,12.20
2022-08-21T01:07:52.748Z,12.21
2022-08-21T01:08:52.737Z,12.24
2022-08-21T01:09:52.742Z,12.27
2022-08-21T01:10:54.591Z,12.29
2022-08-21T01:11:52.710Z,12.31
2022-08-21T01:12:52.738Z,12.33
2022-08-21T01:13:52.688Z,12.33
2022-08-21T01:14:52.670Z,12.37
2022-08-21T01:15:52.662Z,12.37
2022-08-21T01:16:52.654Z,12.34
2022-08-21T01:17:52.643Z,12.31
2022-08-21T01:18:52.662Z,12.31
2022-08-21T01:19:52.621Z,12.33
2022-08-21T01:20:52.614Z,12.31
2022-08-21T01:21:52.604Z,12.34
2022-08-21T01:22:52.594Z,12.34
2022-08-21T01:23:52.583Z,12.34
2022-08-21T01:24:52.601Z,12.34
2022-08-21T01:25:52.564Z,12.34
2022-08-21T01:26:52.553Z,12.37
2022-08-21T01:27:52.542Z,12.37
2022-08-21T01:28:52.535Z,12.37
2022-08-21T01:29:52.523Z,12.33
2022-08-21T01:30:52.556Z,12.26
2022-08-21T01:31:52.504Z,12.20
2022-08-21T01:32:52.496Z,12.16
2022-08-21T01:33:52.484Z,12.13
2022-08-21T01:34:52.473Z,12.12
2022-08-21T01:35:52.465Z,12.12
2022-08-21T01:36:52.486Z,12.13
2022-08-21T01:37:52.438Z,12.15
2022-08-21T01:38:52.434Z,12.15
2022-08-21T01:39:52.481Z,12.15
2022-08-21T01:40:52.418Z,12.19
2022-08-21T01:41:52.409Z,12.19
2022-08-21T01:42:52.428Z,12.20
2022-08-21T01:43:52.380Z,12.15
2022-08-21T01:44:53.744Z,12.16
2022-08-21T01:45:52.360Z,12.16
2022-08-21T01:46:52.351Z,12.15
2022-08-21T01:47:52.338Z,12.12
2022-08-21T01:48:52.360Z,12.11
2022-08-21T01:49:52.321Z,12.09
2022-08-21T01:50:56.863Z,12.06
2022-08-21T01:51:52.305Z,12.02
2022-08-21T01:52:52.286Z,11.96
2022-08-21T01:53:52.279Z,11.83
2022-08-21T01:54:55.445Z,11.75
2022-08-21T01:55:52.254Z,11.71
2022-08-21T01:56:52.245Z,11.70
2022-08-21T01:57:52.242Z,11.67
2022-08-21T01:58:52.221Z,11.62
2022-08-21T01:59:52.214Z,11.62
2022-08-21T02:00:52.299Z,11.56
2022-08-21T02:01:52.194Z,11.54
2022-08-21T02:02:52.187Z,11.53
2022-08-21T02:03:52.171Z,11.53
2022-08-21T02:04:52.156Z,11.53
2022-08-21T02:05:52.153Z,11.52
2022-08-21T02:06:52.177Z,11.52
2022-08-21T02:07:52.126Z,11.50
2022-08-21T02:08:52.117Z,11.54
2022-08-21T02:09:52.114Z,11.54
2022-08-21T02:10:52.097Z,11.54
2022-08-21T02:11:52.096Z,11.56
2022-08-21T02:12:52.213Z,11.56
2022-08-21T02:13:52.075Z,11.53
2022-08-21T02:14:52.057Z,11.46
2022-08-21T02:15:52.055Z,11.34
2022-08-21T02:16:52.039Z,11.29
2022-08-21T02:17:53.066Z,11.24
2022-08-21T02:18:52.022Z,11.20
2022-08-21T02:19:52.013Z,11.20
2022-08-21T02:20:55.736Z,11.20
2022-08-21T02:21:51.991Z,11.21
2022-08-21T02:22:52.030Z,11.25
2022-08-21T02:23:52.003Z,11.27
2022-08-21T02:24:54.383Z,11.28
2022-08-21T02:25:51.952Z,11.29
2022-08-21T02:26:51.941Z,11.31
2022-08-21T02:27:51.931Z,11.31
2022-08-21T02:28:51.921Z,11.32
2022-08-21T02:29:51.941Z,11.34
2022-08-21T02:30:51.894Z,11.35
2022-08-21T02:31:51.894Z,11.34
2022-08-21T02:32:51.919Z,11.34
2022-08-21T02:33:51.877Z,11.34
2022-08-21T02:34:51.863Z,11.35
2022-08-21T02:35:51.897Z,11.36
2022-08-21T02:36:59.419Z,11.36
2022-08-21T02:37:52.834Z,11.36
2022-08-21T02:38:51.817Z,11.38
2022-08-21T02:39:51.845Z,11.38
2022-08-21T02:40:51.807Z,11.38
2022-08-21T02:41:51.814Z,11.38
2022-08-21T02:42:51.835Z,11.38
2022-08-21T02:43:51.766Z,11.32
2022-08-21T02:44:51.766Z,11.29
2022-08-21T02:45:51.754Z,11.29
2022-08-21T02:46:51.738Z,11.29
2022-08-21T02:47:51.759Z,11.27
2022-08-21T02:48:51.718Z,11.25
2022-08-21T02:49:51.718Z,11.20
2022-08-21T02:50:51.698Z,11.17
2022-08-21T02:51:51.689Z,11.19
2022-08-21T02:52:51.811Z,11.13
2022-08-21T02:53:51.701Z,11.09
2022-08-21T02:54:51.662Z,11.03
2022-08-21T02:55:51.649Z,11.03
2022-08-21T02:56:51.631Z,11.02
2022-08-21T02:57:51.640Z,11.03
2022-08-21T02:58:51.619Z,10.99
2022-08-21T02:59:51.642Z,11.01
2022-08-21T03:00:51.599Z,11.01
2022-08-21T03:01:51.583Z,11.01
2022-08-21T03:02:51.649Z,11.03
2022-08-21T03:03:51.574Z,11.09
2022-08-21T03:04:51.553Z,11.09
2022-08-21T03:05:51.584Z,11.09
2022-08-21T03:06:51.539Z,11.13
2022-08-21T03:07:51.530Z,11.13
2022-08-21T03:08:51.520Z,11.14
2022-08-21T03:09:56.002Z,11.14
2022-08-21T03:10:51.512Z,11.14
2022-08-21T03:11:51.515Z,11.09
2022-08-21T03:12:51.498Z,10.95
2022-08-21T03:13:51.414Z,10.88
2022-08-21T03:14:51.405Z,10.74
2022-08-21T03:15:51.400Z,10.66
2022-08-21T03:16:51.382Z,10.65
2022-08-21T03:17:51.398Z,10.65
2022-08-21T03:18:51.356Z,10.66
2022-08-21T03:19:51.349Z,10.65
2022-08-21T03:20:51.345Z,10.60
2022-08-21T03:21:51.335Z,10.63
2022-08-21T03:22:52.981Z,10.65
2022-08-21T03:23:51.336Z,10.60
2022-08-21T03:24:51.297Z,10.60
2022-08-21T03:25:51.297Z,10.59
2022-08-21T03:26:51.279Z,10.55
2022-08-21T03:27:51.270Z,10.58
2022-08-21T03:28:51.257Z,10.52
2022-08-21T03:29:51.280Z,10.43
2022-08-21T03:30:51.230Z,10.40
2022-08-21T03:31:51.229Z,10.37
2022-08-21T03:32:51.251Z,10.32
2022-08-21T03:33:51.213Z,10.32
2022-08-21T03:34:51.204Z,10.25
2022-08-21T03:35:51.221Z,10.09
2022-08-21T03:36:51.171Z,9.96
2022-08-21T03:37:51.168Z,9.91
2022-08-21T03:38:51.152Z,9.85
2022-08-21T03:39:51.206Z,9.83
2022-08-21T03:40:51.130Z,9.82
2022-08-21T03:41:51.163Z,9.75
2022-08-21T03:42:51.133Z,9.71
2022-08-21T03:43:51.104Z,9.71
2022-08-21T03:44:51.093Z,9.66
2022-08-21T03:45:52.588Z,9.64
2022-08-21T03:46:51.073Z,9.56
2022-08-21T03:47:51.093Z,9.50
2022-08-21T03:48:51.048Z,9.48
2022-08-21T03:49:51.044Z,9.46
2022-08-21T03:50:51.025Z,9.45
2022-08-21T03:51:59.411Z,9.46
2022-08-21T03:52:52.038Z,9.46
2022-08-21T03:53:51.004Z,9.49
2022-08-21T03:54:50.986Z,9.52
2022-08-21T03:55:50.978Z,9.45
2022-08-21T03:56:50.966Z,9.38
2022-08-21T03:57:50.963Z,9.31
2022-08-21T03:58:50.976Z,9.30
2022-08-21T03:59:50.943Z,9.30
2022-08-21T04:00:50.929Z,9.28
2022-08-21T04:01:50.964Z,9.25
2022-08-21T04:02:50.908Z,9.30
2022-08-21T04:03:50.896Z,9.38
2022-08-21T04:04:50.909Z,9.40
2022-08-21T04:05:50.879Z,9.40
2022-08-21T04:06:50.869Z,9.30
2022-08-21T04:07:50.861Z,9.25
2022-08-21T04:08:50.839Z,9.20
2022-08-21T04:09:50.837Z,9.23
2022-08-21T04:10:50.850Z,9.21
2022-08-21T04:11:50.809Z,9.15
2022-08-21T04:12:50.841Z,9.06
2022-08-21T04:13:50.790Z,9.13
2022-08-21T04:14:50.777Z,9.06
2022-08-21T04:15:50.773Z,9.02
2022-08-21T04:16:50.793Z,9.04
2022-08-21T04:17:50.753Z,9.09
2022-08-21T04:18:50.733Z,9.12
2022-08-21T04:19:53.842Z,9.18
2022-08-21T04:20:50.879Z,9.23
2022-08-21T04:21:50.718Z,9.23
2022-08-21T04:22:50.789Z,9.25
2022-08-21T04:23:50.693Z,9.25
2022-08-21T04:24:50.673Z,9.27
2022-08-21T04:25:50.663Z,9.20
2022-08-21T04:26:50.652Z,9.13
2022-08-21T04:27:50.658Z,9.09
2022-08-21T04:28:50.665Z,9.06
2022-08-21T04:29:50.627Z,9.16
2022-08-21T04:30:50.606Z,9.30
2022-08-21T04:31:50.603Z,9.28
2022-08-21T04:32:50.657Z,9.24
2022-08-21T04:33:50.584Z,9.31
2022-08-21T04:34:50.596Z,9.34
2022-08-21T04:35:50.556Z,9.40
2022-08-21T04:36:50.547Z,9.40
2022-08-21T04:37:50.538Z,9.40
2022-08-21T04:38:50.517Z,9.39
2022-08-21T04:39:53.572Z,9.39
2022-08-21T04:40:50.540Z,9.42
2022-08-21T04:41:50.508Z,9.43
2022-08-21T04:42:50.539Z,9.49
2022-08-21T04:43:50.479Z,9.53
2022-08-21T04:44:50.467Z,9.56
2022-08-21T04:45:50.457Z,9.57
2022-08-21T04:46:50.486Z,9.64
2022-08-21T04:47:52.782Z,9.73
2022-08-21T04:48:50.422Z,9.85
2022-08-21T04:49:50.418Z,9.96
2022-08-21T04:50:50.403Z,10.03
2022-08-21T04:51:50.399Z,10.06
2022-08-21T04:52:50.420Z,10.06
2022-08-21T04:53:50.372Z,10.07
2022-08-21T04:54:54.380Z,10.17
2022-08-21T04:55:50.351Z,10.24
2022-08-21T04:56:50.341Z,10.26
2022-08-21T04:57:50.335Z,10.28
2022-08-21T04:58:50.341Z,10.32
2022-08-21T04:59:50.312Z,10.37
2022-08-21T05:00:50.300Z,10.46
2022-08-21T05:01:50.347Z,10.52
2022-08-21T05:02:50.282Z,10.56
2022-08-21T05:03:50.275Z,10.62
2022-08-21T05:04:50.284Z,10.65
2022-08-21T05:05:50.254Z,10.68
2022-08-21T05:06:50.235Z,10.71
2022-08-21T05:07:50.223Z,10.73
2022-08-21T05:08:50.214Z,10.77
2022-08-21T05:09:50.206Z,10.88
2022-08-21T05:10:50.224Z,10.91
2022-08-21T05:11:50.192Z,10.91
2022-08-21T05:12:50.174Z,11.01
2022-08-21T05:13:54.998Z,11.13
2022-08-21T05:14:51.153Z,11.20
2022-08-21T05:15:50.153Z,11.28
2022-08-21T05:16:50.163Z,11.38
2022-08-21T05:17:55.488Z,11.50
2022-08-21T05:18:51.109Z,11.70
2022-08-21T05:19:50.106Z,11.99
2022-08-21T05:20:50.087Z,12.19
2022-08-21T05:21:50.086Z,12.33
2022-08-21T05:22:50.099Z,12.60
2022-08-21T05:23:50.065Z,12.74
2022-08-21T05:24:50.048Z,12.74
2022-08-21T05:25:50.041Z,12.88
2022-08-21T05:26:50.032Z,12.96
2022-08-21T05:27:50.019Z,12.82
2022-08-21T05:28:50.030Z,12.70
2022-08-21T05:29:50.001Z,12.74
2022-08-21T05:30:49.990Z,12.75
2022-08-21T05:31:49.980Z,12.78
2022-08-21T05:32:49.975Z,12.77
2022-08-21T05:33:49.958Z,12.77
2022-08-21T05:34:49.974Z,12.79
2022-08-21T05:35:49.941Z,12.85
2022-08-21T05:36:49.922Z,12.95
2022-08-21T05:37:49.914Z,13.04
2022-08-21T05:38:49.908Z,13.12
2022-08-21T05:40:05.217Z,13.15
2022-08-21T05:40:50.956Z,13.25
2022-08-21T05:41:49.874Z,13.43
2022-08-21T05:42:54.571Z,13.44
2022-08-21T05:43:50.850Z,13.65
2022-08-21T05:44:49.842Z,13.88
2022-08-21T05:45:49.825Z,13.98
2022-08-21T05:46:49.867Z,13.98
2022-08-21T05:47:49.815Z,14.09
2022-08-21T05:48:49.812Z,14.16
2022-08-21T05:49:49.786Z,14.19
2022-08-21T05:50:49.776Z,14.24
2022-08-21T05:51:49.767Z,14.19
2022-08-21T05:52:49.780Z,14.16
2022-08-21T05:53:49.748Z,14.07
2022-08-21T05:54:49.738Z,14.02
2022-08-21T05:55:49.727Z,14.10
2022-08-21T05:56:49.717Z,14.19
2022-08-21T05:57:49.706Z,14.24
2022-08-21T05:58:49.731Z,14.27
2022-08-21T05:59:49.689Z,14.28
2022-08-21T06:00:49.694Z,14.34
2022-08-21T06:01:49.733Z,14.46
2022-08-21T06:02:49.667Z,14.54
2022-08-21T06:03:49.646Z,14.62
2022-08-21T06:04:49.674Z,14.68
2022-08-21T06:05:49.643Z,14.72
2022-08-21T06:06:49.636Z,14.80
2022-08-21T06:07:49.606Z,14.78
2022-08-21T06:08:49.606Z,14.80
2022-08-21T06:09:49.584Z,14.81
2022-08-21T06:10:49.602Z,14.84
2022-08-21T06:11:49.562Z,14.86
2022-08-21T06:12:49.555Z,14.93
2022-08-21T06:13:49.534Z,15.03
2022-08-21T06:14:49.535Z,15.11
2022-08-21T06:15:49.517Z,15.09
2022-08-21T06:16:49.535Z,15.19
2022-08-21T06:17:49.504Z,15.26
2022-08-21T06:18:49.493Z,15.30
2022-08-21T06:19:49.477Z,15.28
2022-08-21T06:20:49.467Z,15.30
2022-08-21T06:21:49.458Z,15.31
2022-08-21T06:22:49.476Z,15.31
2022-08-21T06:23:49.438Z,15.42
2022-08-21T06:24:49.429Z,15.42
2022-08-21T06:25:49.408Z,15.42
2022-08-21T06:26:49.417Z,15.41
2022-08-21T06:27:49.397Z,15.42
2022-08-21T06:28:49.429Z,15.45
2022-08-21T06:29:49.371Z,15.45
2022-08-21T06:30:49.372Z,15.51
2022-08-21T06:31:49.359Z,15.57
2022-08-21T06:32:49.342Z,15.63
2022-08-21T06:33:49.330Z,15.70
2022-08-21T06:34:49.350Z,15.78
2022-08-21T06:35:49.308Z,15.81
2022-08-21T06:36:49.305Z,15.76
2022-08-21T06:37:49.291Z,15.72
2022-08-21T06:38:51.793Z,15.68
2022-08-21T06:39:49.322Z,15.64
2022-08-21T06:40:49.285Z,15.61
2022-08-21T06:41:49.255Z,15.59
2022-08-21T06:42:49.235Z,15.59
2022-08-21T06:43:49.225Z,15.66
2022-08-21T06:44:49.215Z,15.70
2022-08-21T06:45:49.203Z,15.88
2022-08-21T06:46:49.236Z,16.20
2022-08-21T06:47:49.185Z,16.38
2022-08-21T06:48:49.178Z,16.58
2022-08-21T06:49:49.156Z,16.70
2022-08-21T06:50:49.167Z,16.86
2022-08-21T06:51:49.151Z,16.90
2022-08-21T06:52:49.169Z,17.04
2022-08-21T06:53:49.125Z,17.13
2022-08-21T06:54:49.117Z,17.22
2022-08-21T06:55:49.102Z,17.33
2022-08-21T06:56:49.102Z,17.46
2022-08-21T06:57:52.624Z,17.57
2022-08-21T06:58:49.100Z,17.74
2022-08-21T06:59:49.060Z,17.79
2022-08-21T07:00:49.054Z,17.67
2022-08-21T07:01:49.129Z,17.64
2022-08-21T07:02:49.030Z,17.79
2022-08-21T07:03:49.019Z,17.69
2022-08-21T07:04:49.049Z,17.64
2022-08-21T07:05:49.001Z,17.64
2022-08-21T07:06:49.003Z,17.76
2022-08-21T07:07:48.975Z,17.85
2022-08-21T07:08:48.973Z,17.79
2022-08-21T07:09:48.953Z,17.71
2022-08-21T07:10:48.983Z,17.79
2022-08-21T07:11:48.945Z,18.03
2022-08-21T07:12:48.924Z,18.25
2022-08-21T07:13:48.915Z,18.36
2022-08-21T07:14:48.904Z,18.52
2022-08-21T07:15:48.895Z,18.67
2022-08-21T07:16:48.922Z,18.79
2022-08-21T07:17:48.876Z,18.86
2022-08-21T07:18:48.866Z,18.98
2022-08-21T07:19:48.859Z,19.13
2022-08-21T07:20:48.847Z,19.11
2022-08-21T07:21:48.831Z,19.13
2022-08-21T07:22:48.857Z,19.13
2022-08-21T07:23:48.817Z,18.77
2022-08-21T07:24:48.828Z,18.68
2022-08-21T07:25:48.792Z,18.61
2022-08-21T07:26:48.840Z,18.62
2022-08-21T07:27:48.773Z,18.55
2022-08-21T07:28:48.791Z,18.34
2022-08-21T07:29:48.753Z,18.15
2022-08-21T07:30:48.769Z,18.28
2022-08-21T07:31:48.722Z,18.55
2022-08-21T07:32:48.734Z,18.52
2022-08-21T07:33:48.711Z,18.27
2022-08-21T07:34:48.743Z,18.54
2022-08-21T07:35:48.691Z,18.80
2022-08-21T07:36:48.684Z,19.02
2022-08-21T07:37:48.672Z,19.20
2022-08-21T07:38:48.667Z,19.42
2022-08-21T07:39:48.695Z,19.31
2022-08-21T07:40:48.682Z,19.43
2022-08-21T07:41:48.625Z,19.55
2022-08-21T07:42:48.625Z,19.35
2022-08-21T07:43:48.605Z,19.13
2022-08-21T07:44:49.549Z,19.02
2022-08-21T07:45:48.587Z,18.83
2022-08-21T07:46:48.609Z,18.47
2022-08-21T07:47:48.579Z,18.39
2022-08-21T07:48:48.551Z,18.79
2022-08-21T07:49:48.546Z,18.80
2022-08-21T07:50:48.539Z,19.14
2022-08-21T07:51:48.528Z,19.23
2022-08-21T07:52:48.569Z,19.51
2022-08-21T07:53:48.503Z,19.70
2022-08-21T07:54:48.502Z,19.87
2022-08-21T07:55:48.480Z,20.06
2022-08-21T07:56:48.473Z,20.24
2022-08-21T07:57:48.466Z,20.35
2022-08-21T07:58:48.482Z,20.50
2022-08-21T07:59:48.439Z,20.66
2022-08-21T08:00:48.434Z,20.84
2022-08-21T08:01:48.424Z,20.98
2022-08-21T08:02:48.411Z,20.72
2022-08-21T08:03:48.401Z,20.99
2022-08-21T08:04:51.153Z,21.19
2022-08-21T08:05:48.383Z,20.98
2022-08-21T08:06:48.383Z,20.66
2022-08-21T08:07:48.365Z,20.86
2022-08-21T08:08:48.359Z,20.50
2022-08-21T08:09:48.337Z,20.12
2022-08-21T08:10:48.361Z,19.87
2022-08-21T08:11:48.316Z,19.70
2022-08-21T08:12:48.311Z,19.43
2022-08-21T08:13:48.296Z,19.29
2022-08-21T08:14:48.299Z,19.13
2022-08-21T08:15:48.278Z,18.92
2022-08-21T08:16:48.331Z,18.72
2022-08-21T08:17:48.249Z,18.52
2022-08-21T08:18:48.261Z,18.80
2022-08-21T08:19:48.235Z,19.10
2022-08-21T08:20:48.230Z,18.83
2022-08-21T08:21:48.222Z,19.10
2022-08-21T08:22:50.071Z,19.40
2022-08-21T08:23:48.194Z,19.38
2022-08-21T08:24:48.217Z,19.36
2022-08-21T08:25:48.173Z,19.76
2022-08-21T08:26:53.462Z,19.78
2022-08-21T08:27:49.185Z,19.53
2022-08-21T08:28:48.145Z,19.23
2022-08-21T08:29:48.138Z,18.97
2022-08-21T08:30:48.130Z,18.94
2022-08-21T08:31:48.116Z,18.82
2022-08-21T08:32:48.123Z,19.20
2022-08-21T08:33:48.138Z,19.20
2022-08-21T08:34:48.094Z,18.92
2022-08-21T08:35:48.120Z,18.92
2022-08-21T08:36:48.070Z,18.86
2022-08-21T08:37:52.362Z,18.73
2022-08-21T08:38:48.063Z,18.54
2022-08-21T08:39:48.113Z,18.95
2022-08-21T08:40:48.019Z,18.84
2022-08-21T08:41:48.018Z,19.32
2022-08-21T08:42:48.001Z,19.38
2022-08-21T08:43:47.990Z,19.29
2022-08-21T08:44:47.981Z,19.10
2022-08-21T08:45:48.012Z,19.46
2022-08-21T08:46:47.952Z,19.86
2022-08-21T08:47:47.951Z,19.63
2022-08-21T08:48:53.139Z,19.53
2022-08-21T08:49:48.934Z,19.72
2022-08-21T08:50:47.920Z,19.95
2022-08-21T08:51:47.932Z,20.35
2022-08-21T08:52:48.892Z,20.77
2022-08-21T08:53:47.891Z,21.01
2022-08-21T08:54:47.874Z,21.19
2022-08-21T08:55:47.865Z,21.50
2022-08-21T08:56:47.852Z,21.72
2022-08-21T08:57:49.366Z,21.81
2022-08-21T08:58:47.834Z,21.39
2022-08-21T08:59:47.845Z,21.23
2022-08-21T09:00:47.847Z,21.21
2022-08-21T09:01:47.955Z,20.90
2022-08-21T09:02:47.788Z,20.69
2022-08-21T09:03:47.827Z,20.50
2022-08-21T09:04:47.770Z,20.34
2022-08-21T09:05:47.768Z,20.68
2022-08-21T09:06:47.750Z,20.91
2022-08-21T09:07:47.750Z,20.64
2022-08-21T09:08:47.743Z,20.66
2022-08-21T09:09:47.762Z,21.06
2022-08-21T09:10:47.713Z,21.54
2022-08-21T09:11:47.710Z,21.74
2022-08-21T09:12:47.695Z,21.90
2022-08-21T09:13:47.679Z,21.32
2022-08-21T09:14:47.663Z,20.98
2022-08-21T09:15:47.685Z,20.76
2022-08-21T09:16:47.659Z,20.69
2022-08-21T09:17:47.635Z,21.20
2022-08-21T09:18:47.626Z,21.45
2022-08-21T09:19:47.615Z,21.75
2022-08-21T09:20:47.605Z,21.82
2022-08-21T09:21:47.636Z,21.95
2022-08-21T09:22:47.588Z,22.19
2022-08-21T09:23:47.581Z,22.44
2022-08-21T09:24:51.359Z,22.57
2022-08-21T09:25:47.547Z,22.78
2022-08-21T09:26:47.540Z,23.01
2022-08-21T09:27:47.560Z,23.17
2022-08-21T09:28:47.522Z,23.35
2022-08-21T09:29:47.508Z,23.45
2022-08-21T09:30:47.501Z,23.50
2022-08-21T09:31:47.491Z,23.65
2022-08-21T09:32:47.477Z,23.76
2022-08-21T09:33:47.501Z,23.76
2022-08-21T09:34:47.453Z,23.68
2022-08-21T09:35:47.451Z,23.71
2022-08-21T09:36:47.432Z,23.38
2022-08-21T09:37:47.441Z,22.84
2022-08-21T09:38:47.423Z,22.80
2022-08-21T09:39:48.897Z,22.39
2022-08-21T09:40:47.406Z,22.13
2022-08-21T09:41:47.401Z,22.52
2022-08-21T09:42:47.379Z,22.75
2022-08-21T09:43:47.366Z,22.86
2022-08-21T09:44:47.360Z,22.84
2022-08-21T09:45:47.378Z,22.84
2022-08-21T09:46:47.339Z,23.09
2022-08-21T09:47:47.326Z,23.23
2022-08-21T09:48:47.320Z,22.97
2022-08-21T09:49:47.317Z,22.68
2022-08-21T09:50:47.287Z,22.71
2022-08-21T09:51:47.309Z,22.77
2022-08-21T09:52:47.271Z,22.94
2022-08-21T09:53:47.261Z,22.89
2022-08-21T09:54:47.250Z,22.87
2022-08-21T09:55:47.241Z,23.12
2022-08-21T09:56:47.229Z,23.27
2022-08-21T09:57:50.533Z,23.20
2022-08-21T09:58:47.229Z,23.04
2022-08-21T09:59:47.202Z,22.99
2022-08-21T10:00:47.209Z,22.96
2022-08-21T10:01:47.183Z,22.62
2022-08-21T10:02:47.164Z,22.78
2022-08-21T10:03:47.194Z,22.83
2022-08-21T10:04:47.144Z,22.83
2022-08-21T10:05:47.135Z,22.84
2022-08-21T10:06:47.116Z,22.97
2022-08-21T10:07:47.109Z,23.17
2022-08-21T10:08:47.107Z,23.35
2022-08-21T10:09:47.117Z,23.53
2022-08-21T10:10:47.086Z,23.65
2022-08-21T10:11:47.077Z,23.86
2022-08-21T10:12:47.061Z,23.83
2022-08-21T10:13:47.055Z,23.85
2022-08-21T10:14:47.051Z,23.82
2022-08-21T10:15:47.058Z,23.75
2022-08-21T10:16:47.017Z,23.92
2022-08-21T10:17:47.018Z,24.12
2022-08-21T10:18:46.999Z,24.26
2022-08-21T10:19:46.989Z,23.95
2022-08-21T10:20:46.980Z,24.02
2022-08-21T10:21:46.997Z,23.70
2022-08-21T10:22:46.965Z,23.70
2022-08-21T10:23:46.954Z,23.11
2022-08-21T10:24:46.934Z,23.19
2022-08-21T10:25:56.923Z,23.20
2022-08-21T10:26:47.941Z,22.92
2022-08-21T10:27:46.915Z,23.01
2022-08-21T10:28:46.909Z,23.07
2022-08-21T10:29:46.897Z,23.34
2022-08-21T10:30:46.877Z,23.58
2022-08-21T10:31:46.866Z,23.76
2022-08-21T10:32:46.883Z,23.89
2022-08-21T10:33:46.847Z,23.87
2022-08-21T10:34:46.829Z,24.00
2022-08-21T10:35:46.831Z,24.04
2022-08-21T10:36:46.812Z,24.05
2022-08-21T10:37:46.807Z,23.62
2022-08-21T10:38:58.738Z,23.20
2022-08-21T10:39:47.834Z,22.86
2022-08-21T10:40:46.771Z,22.57
2022-08-21T10:41:46.781Z,22.67
2022-08-21T10:42:46.753Z,22.71
2022-08-21T10:43:46.750Z,22.47
2022-08-21T10:44:46.772Z,22.29
2022-08-21T10:45:46.721Z,22.23
2022-08-21T10:46:46.722Z,22.27
2022-08-21T10:47:46.711Z,22.71
2022-08-21T10:48:46.707Z,23.17
2022-08-21T10:49:46.685Z,23.40
2022-08-21T10:50:46.716Z,23.39
2022-08-21T10:51:46.665Z,23.22
2022-08-21T10:52:46.653Z,22.96
2022-08-21T10:53:46.638Z,22.72
2022-08-21T10:54:46.636Z,22.72
2022-08-21T10:55:46.623Z,23.26
2022-08-21T10:56:46.639Z,23.70
2022-08-21T10:57:46.599Z,23.98
2022-08-21T10:58:46.585Z,24.22
2022-08-21T10:59:46.581Z,24.52
2022-08-21T11:00:46.605Z,24.29
2022-08-21T11:01:46.567Z,23.76
2022-08-21T11:02:46.571Z,23.95
2022-08-21T11:03:46.543Z,24.22
2022-08-21T11:04:49.658Z,24.50
2022-08-21T11:05:50.519Z,24.67
2022-08-21T11:06:46.503Z,24.98
2022-08-21T11:07:46.501Z,25.13
2022-08-21T11:08:47.640Z,24.94
2022-08-21T11:09:46.487Z,24.82
2022-08-21T11:10:58.240Z,24.71
2022-08-21T11:11:59.128Z,24.16
2022-08-21T11:12:47.442Z,23.92
2022-08-21T11:13:46.446Z,23.79
2022-08-21T11:14:50.098Z,23.61
2022-08-21T11:15:46.426Z,23.29
2022-08-21T11:16:46.405Z,23.17
2022-08-21T11:17:46.397Z,23.12
2022-08-21T11:18:46.387Z,23.32
2022-08-21T11:19:46.382Z,23.65
2022-08-21T11:20:46.402Z,23.89
2022-08-21T11:21:46.380Z,24.16
2022-08-21T11:22:46.348Z,23.83
2022-08-21T11:23:46.351Z,23.83
2022-08-21T11:24:46.329Z,24.13
2022-08-21T11:25:46.323Z,24.34
2022-08-21T11:26:46.331Z,24.42
2022-08-21T11:27:47.294Z,24.17
2022-08-21T11:28:46.297Z,23.60
2022-08-21T11:29:46.279Z,23.38
2022-08-21T11:30:46.274Z,23.47
2022-08-21T11:31:46.261Z,23.50
2022-08-21T11:32:46.274Z,23.85
2022-08-21T11:33:46.235Z,24.04
2022-08-21T11:34:46.225Z,23.82
2022-08-21T11:35:46.224Z,23.58
2022-08-21T11:36:47.365Z,23.31
2022-08-21T11:37:46.198Z,23.12
2022-08-21T11:38:46.216Z,23.02
2022-08-21T11:39:46.243Z,22.80
2022-08-21T11:40:46.178Z,22.82
2022-08-21T11:41:46.157Z,23.34
2022-08-21T11:42:46.139Z,23.60
2022-08-21T11:43:46.130Z,23.89
2022-08-21T11:44:46.149Z,23.90
2022-08-21T11:45:46.119Z,23.55
2022-08-21T11:46:46.109Z,23.17
2022-08-21T11:47:46.099Z,22.93
2022-08-21T11:48:46.093Z,22.75
2022-08-21T11:49:46.093Z,23.12
2022-08-21T11:50:46.107Z,23.53
2022-08-21T11:51:46.063Z,23.89
2022-08-21T11:52:46.051Z,23.95
2022-08-21T11:53:46.460Z,24.14
2022-08-21T11:54:46.042Z,24.17
2022-08-21T11:55:46.032Z,24.35
2022-08-21T11:56:46.043Z,24.42
2022-08-21T11:57:45.995Z,24.63
2022-08-21T11:58:45.992Z,24.88
2022-08-21T11:59:45.975Z,24.71
2022-08-21T12:00:45.967Z,24.31
2022-08-21T12:01:46.026Z,23.94
2022-08-21T12:02:45.977Z,24.05
2022-08-21T12:03:45.937Z,24.38
2022-08-21T12:04:46.931Z,24.68
2022-08-21T12:05:45.907Z,24.90
2022-08-21T12:06:45.909Z,25.06
2022-08-21T12:07:45.911Z,25.16
2022-08-21T12:08:45.908Z,25.31
2022-08-21T12:09:45.869Z,25.37
2022-08-21T12:10:45.872Z,25.25
2022-08-21T12:11:45.854Z,25.34
2022-08-21T12:12:45.844Z,25.44
2022-08-21T12:13:45.831Z,25.57
2022-08-21T12:14:45.845Z,25.65
2022-08-21T12:15:45.812Z,25.59
2022-08-21T12:16:45.793Z,25.57
2022-08-21T12:17:45.794Z,25.52
2022-08-21T12:18:45.774Z,25.54
2022-08-21T12:19:45.772Z,25.16
2022-08-21T12:20:50.898Z,24.98
2022-08-21T12:21:46.745Z,25.10
2022-08-21T12:22:45.736Z,24.92
2022-08-21T12:23:46.728Z,24.90
2022-08-21T12:24:45.722Z,24.91
2022-08-21T12:25:45.709Z,24.95
2022-08-21T12:26:45.730Z,24.82
2022-08-21T12:27:45.697Z,24.68
2022-08-21T12:28:45.676Z,24.77
2022-08-21T12:29:45.670Z,24.71
2022-08-21T12:30:45.671Z,24.63
2022-08-21T12:31:45.650Z,24.75
2022-08-21T12:32:45.662Z,24.22
2022-08-21T12:33:45.641Z,23.83
2022-08-21T12:34:45.614Z,23.98
2022-08-21T12:35:45.611Z,24.08
2022-08-21T12:36:45.596Z,23.77
2022-08-21T12:37:45.592Z,23.64
2022-08-21T12:38:45.605Z,23.46
2022-08-21T12:39:45.613Z,23.27
2022-08-21T12:40:45.550Z,23.14
2022-08-21T12:41:45.551Z,23.15
2022-08-21T12:42:53.017Z,23.50
2022-08-21T12:43:46.552Z,23.77
2022-08-21T12:44:45.511Z,24.08
2022-08-21T12:45:45.500Z,24.34
2022-08-21T12:46:45.491Z,24.49
2022-08-21T12:47:45.481Z,24.57
2022-08-21T12:48:45.468Z,24.75
2022-08-21T12:49:45.487Z,24.87
2022-08-21T12:50:49.169Z,24.67
2022-08-21T12:51:45.443Z,24.39
2022-08-21T12:52:45.442Z,24.20
2022-08-21T12:53:45.421Z,24.37
2022-08-21T12:54:45.404Z,24.47
2022-08-21T12:55:45.422Z,24.61